Time;durP1;ratioP1;P1;durP2;ratioP2;P2;SDS_P1;SDS_P2;PMS_P1;PMS_P2;Temp;Humidity;BMP_temperature;BMP_pressure;BME280_temperature;BME280_humidity;BME280_pressure;Samples;Min_cycle;Max_cycle;Signal;HPM_P1;HPM_P2
2024/02/10 00:01:00;;;;;;;17.83;15.40;;;;;;;;;;5052202;28;20244;-78
2024/02/10 00:03:30;;;;;;;17.73;15.10;;;;;;;;;;5052353;28;20232;-80
2024/02/10 00:06:01;;;;;;;19.20;15.90;;;;;;;;;;5034432;28;20229;-81
2024/02/10 00:08:29;;;;;;;18.77;14.67;;;;;;;;;;5051656;28;20270;-83
2024/02/10 00:11:00;;;;;;;17.40;14.57;;;;;;;;;;5057700;28;20259;-80
2024/02/10 00:13:33;;;;;;;17.83;14.97;;;;;;;;;;5067323;28;20197;-79
2024/02/10 00:16:04;;;;;;;17.23;14.63;;;;;;;;;;5063756;28;20653;-81
2024/02/10 00:18:32;;;;;;;17.43;14.73;;;;;;;;;;5068420;28;20236;-78
2024/02/10 00:21:00;;;;;;;17.40;15.30;;;;;;;;;;5068760;28;20341;-81
2024/02/10 00:23:27;;;;;;;18.90;15.57;;;;;;;;;;5049923;28;20190;-79
2024/02/10 00:26:03;;;;;;;16.63;14.63;;;;;;;;;;5040087;28;20202;-82
2024/02/10 00:28:34;;;;;;;16.93;14.03;;;;;;;;;;5036977;28;20688;-81
2024/02/10 00:31:02;;;;;;;16.00;14.30;;;;;;;;;;5029199;28;20268;-81
2024/02/10 00:33:30;;;;;;;16.60;14.63;;;;;;;;;;5071267;28;20201;-81
2024/02/10 00:35:57;;;;;;;15.97;14.27;;;;;;;;;;5065501;28;20189;-78
2024/02/10 00:38:34;;;;;;;15.67;14.07;;;;;;;;;;5057742;28;20228;-81
2024/02/10 00:41:06;;;;;;;16.00;14.07;;;;;;;;;;5055782;28;20267;-79
2024/02/10 00:43:37;;;;;;;15.87;14.17;;;;;;;;;;5060415;28;20283;-80
2024/02/10 00:46:10;;;;;;;16.43;13.67;;;;;;;;;;5042287;28;20209;-78
2024/02/10 00:48:38;;;;;;;15.47;13.83;;;;;;;;;;5062748;28;20223;-79
2024/02/10 00:51:06;;;;;;;13.20;11.80;;;;;;;;;;5052424;28;20208;-78
2024/02/10 00:53:41;;;;;;;14.40;12.90;;;;;;;;;;5069857;28;20192;-79
2024/02/10 00:56:10;;;;;;;12.63;11.33;;;;;;;;;;5070988;28;20247;-78
2024/02/10 00:58:43;;;;;;;12.70;11.27;;;;;;;;;;5045458;28;20328;-81
2024/02/10 01:01:20;;;;;;;13.57;10.50;;;;;;;;;;5056542;28;20377;-81
2024/02/10 01:03:52;;;;;;;12.27;9.83;;;;;;;;;;5045733;28;20286;-81
2024/02/10 01:06:21;;;;;;;10.37;9.03;;;;;;;;;;5060034;28;20249;-81
2024/02/10 01:08:50;;;;;;;11.53;10.30;;;;;;;;;;5055084;28;20256;-79
2024/02/10 01:11:19;;;;;;;14.30;11.07;;;;;;;;;;5057182;28;20193;-80
2024/02/10 01:13:51;;;;;;;12.90;10.77;;;;;;;;;;5056464;28;20259;-80
2024/02/10 01:16:22;;;;;;;12.70;10.83;;;;;;;;;;5067496;28;20185;-79
2024/02/10 01:18:48;;;;;;;11.43;10.27;;;;;;;;;;5058816;28;20244;-80
2024/02/10 01:21:21;;;;;;;11.50;9.90;;;;;;;;;;5058655;28;20224;-86
2024/02/10 01:23:49;;;;;;;12.67;10.77;;;;;;;;;;5048770;28;20192;-80
2024/02/10 01:26:17;;;;;;;14.33;11.47;;;;;;;;;;5050525;28;20248;-81
2024/02/10 01:28:45;;;;;;;14.53;12.87;;;;;;;;;;5067896;28;20201;-77
2024/02/10 01:31:15;;;;;;;14.53;12.77;;;;;;;;;;5068183;28;20884;-82
2024/02/10 01:33:44;;;;;;;15.30;13.67;;;;;;;;;;5052344;28;20203;-81
2024/02/10 01:36:11;;;;;;;17.43;13.57;;;;;;;;;;5047205;28;20228;-84
2024/02/10 01:38:42;;;;;;;16.93;14.47;;;;;;;;;;5035019;28;20226;-82
2024/02/10 01:41:11;;;;;;;15.50;13.10;;;;;;;;;;5025193;28;20210;-82
2024/02/10 01:43:44;;;;;;;16.47;14.27;;;;;;;;;;5058739;28;20211;-81
2024/02/10 01:46:22;;;;;;;15.53;13.90;;;;;;;;;;5063725;28;20266;-82
2024/02/10 01:48:56;;;;;;;16.33;14.63;;;;;;;;;;5047401;28;20255;-80
2024/02/10 01:51:28;;;;;;;15.97;13.40;;;;;;;;;;5049583;28;20193;-81
2024/02/10 01:53:56;;;;;;;16.50;14.07;;;;;;;;;;5061025;28;20200;-81
2024/02/10 01:56:26;;;;;;;15.40;13.73;;;;;;;;;;5055935;28;20246;-81
2024/02/10 01:58:56;;;;;;;16.87;14.07;;;;;;;;;;5055107;28;20238;-82
2024/02/10 02:01:25;;;;;;;17.50;15.30;;;;;;;;;;5065610;28;20192;-81
2024/02/10 02:03:53;;;;;;;16.60;13.90;;;;;;;;;;5065636;28;20251;-81
2024/02/10 02:06:19;;;;;;;18.73;14.60;;;;;;;;;;5061690;28;20221;-80
2024/02/10 02:08:51;;;;;;;15.23;13.63;;;;;;;;;;5056275;28;20195;-80
2024/02/10 02:11:18;;;;;;;16.70;14.43;;;;;;;;;;5054784;28;20203;-82
2024/02/10 02:13:50;;;;;;;18.23;14.17;;;;;;;;;;5062808;28;20284;-82
2024/02/10 02:16:17;;;;;;;16.53;14.20;;;;;;;;;;5064678;28;20197;-81
2024/02/10 02:18:55;;;;;;;17.17;14.57;;;;;;;;;;5067451;28;20705;-82
2024/02/10 02:21:27;;;;;;;16.63;14.83;;;;;;;;;;5058225;28;20244;-81
2024/02/10 02:23:54;;;;;;;17.43;15.60;;;;;;;;;;5052830;28;20205;-81
2024/02/10 02:26:22;;;;;;;18.83;15.47;;;;;;;;;;5058634;28;20190;-84
2024/02/10 02:28:49;;;;;;;20.87;15.40;;;;;;;;;;5037035;28;20197;-82
2024/02/10 02:31:21;;;;;;;17.67;15.07;;;;;;;;;;5052006;28;20214;-82
2024/02/10 02:33:48;;;;;;;16.80;14.97;;;;;;;;;;5045499;28;20233;-80
2024/02/10 02:36:18;;;;;;;17.20;14.63;;;;;;;;;;5043631;28;20205;-81
2024/02/10 02:38:45;;;;;;;16.63;14.80;;;;;;;;;;5068211;28;20219;-80
2024/02/10 02:41:13;;;;;;;18.60;14.40;;;;;;;;;;5039920;28;20197;-83
2024/02/10 02:43:40;;;;;;;16.87;15.17;;;;;;;;;;5060366;28;20230;-83
2024/02/10 02:46:13;;;;;;;16.07;14.33;;;;;;;;;;5048432;28;20686;-84
2024/02/10 02:48:42;;;;;;;16.63;14.77;;;;;;;;;;5057257;28;20201;-81
2024/02/10 02:51:20;;;;;;;17.30;15.20;;;;;;;;;;5048990;28;20619;-81
2024/02/10 02:53:50;;;;;;;17.73;15.83;;;;;;;;;;5062610;28;20192;-80
2024/02/10 02:56:20;;;;;;;19.50;15.40;;;;;;;;;;5060829;28;20193;-82
2024/02/10 02:58:51;;;;;;;17.20;15.40;;;;;;;;;;5055772;28;20239;-81
2024/02/10 03:01:25;;;;;;;18.00;15.30;;;;;;;;;;5060145;28;20221;-81
2024/02/10 03:03:55;;;;;;;17.93;15.30;;;;;;;;;;5054128;28;20244;-82
2024/02/10 03:06:24;;;;;;;18.37;15.13;;;;;;;;;;5063966;28;20684;-80
2024/02/10 03:09:00;;;;;;;18.73;15.77;;;;;;;;;;5062555;28;20273;-80
2024/02/10 03:11:27;;;;;;;19.20;15.93;;;;;;;;;;5064108;28;20205;-83
2024/02/10 03:13:54;;;;;;;17.77;15.67;;;;;;;;;;5056025;28;20200;-80
2024/02/10 03:16:23;;;;;;;18.63;15.40;;;;;;;;;;5055368;28;20193;-81
2024/02/10 03:18:50;;;;;;;17.37;14.87;;;;;;;;;;5066661;28;20251;-83
2024/02/10 03:21:21;;;;;;;17.93;14.87;;;;;;;;;;5053893;28;20307;-80
2024/02/10 03:23:49;;;;;;;16.77;14.63;;;;;;;;;;5044900;28;20213;-82
2024/02/10 03:26:24;;;;;;;17.90;14.80;;;;;;;;;;5051649;28;20208;-83
2024/02/10 03:28:54;;;;;;;19.43;15.33;;;;;;;;;;5042098;28;20211;-80
2024/02/10 03:31:21;;;;;;;16.13;13.77;;;;;;;;;;5054518;28;20190;-81
2024/02/10 03:33:54;;;;;;;17.63;14.63;;;;;;;;;;5052398;28;20189;-80
2024/02/10 03:36:26;;;;;;;17.63;14.97;;;;;;;;;;5062876;28;20198;-81
2024/02/10 03:38:55;;;;;;;15.93;14.27;;;;;;;;;;5054536;28;20292;-80
2024/02/10 03:41:22;;;;;;;17.00;14.47;;;;;;;;;;5062806;28;20201;-81
2024/02/10 03:43:48;;;;;;;17.57;14.53;;;;;;;;;;5058545;28;20259;-84
2024/02/10 03:46:17;;;;;;;17.83;15.57;;;;;;;;;;5057435;28;20189;-82
2024/02/10 03:48:46;;;;;;;16.70;14.60;;;;;;;;;;5053361;28;20388;-82
2024/02/10 03:51:13;;;;;;;20.40;15.23;;;;;;;;;;5062504;28;20232;-82
2024/02/10 03:53:40;;;;;;;17.03;14.67;;;;;;;;;;5053171;28;20666;-81
2024/02/10 03:56:09;;;;;;;18.80;15.53;;;;;;;;;;5038214;28;20191;-80
2024/02/10 03:58:43;;;;;;;17.50;14.37;;;;;;;;;;5058895;28;20249;-84
2024/02/10 04:01:35;;;;;;;18.73;14.47;;;;;;;;;;5054768;28;20200;-80
2024/02/10 04:04:04;;;;;;;16.87;14.63;;;;;;;;;;5053359;28;20206;-82
2024/02/10 04:06:31;;;;;;;16.17;14.10;;;;;;;;;;5054570;28;20264;-82
2024/02/10 04:09:05;;;;;;;16.77;13.93;;;;;;;;;;5054157;28;20197;-83
2024/02/10 04:11:35;;;;;;;15.03;13.00;;;;;;;;;;5042300;28;20279;-82
2024/02/10 04:14:03;;;;;;;15.67;13.23;;;;;;;;;;5063926;28;20194;-83
2024/02/10 04:16:38;;;;;;;14.67;13.17;;;;;;;;;;5069503;28;20224;-82
2024/02/10 04:19:09;;;;;;;17.33;14.10;;;;;;;;;;5066031;28;20228;-80
2024/02/10 04:21:42;;;;;;;16.40;13.50;;;;;;;;;;5055174;28;20185;-81
2024/02/10 04:24:14;;;;;;;15.70;13.80;;;;;;;;;;5059336;28;20740;-80
2024/02/10 04:26:41;;;;;;;15.60;13.53;;;;;;;;;;5044002;28;20599;-82
2024/02/10 04:29:14;;;;;;;15.77;13.73;;;;;;;;;;5048580;28;20205;-81
2024/02/10 04:31:56;;;;;;;15.77;13.60;;;;;;;;;;5064149;28;20197;-81
2024/02/10 04:34:30;;;;;;;16.50;14.13;;;;;;;;;;5038092;28;20206;-80
2024/02/10 04:36:58;;;;;;;16.57;13.43;;;;;;;;;;5050478;28;20255;-81
2024/02/10 04:39:27;;;;;;;16.80;14.83;;;;;;;;;;5053615;28;20241;-82
2024/02/10 04:41:59;;;;;;;16.33;14.17;;;;;;;;;;5048182;28;20196;-83
2024/02/10 04:44:26;;;;;;;16.47;14.37;;;;;;;;;;5055842;28;20240;-82
2024/02/10 04:46:53;;;;;;;17.70;14.93;;;;;;;;;;5062946;28;20194;-82
2024/02/10 04:49:26;;;;;;;16.73;14.93;;;;;;;;;;5056444;28;20579;-81
2024/02/10 04:51:54;;;;;;;17.43;14.87;;;;;;;;;;5047862;28;20193;-81
2024/02/10 04:54:26;;;;;;;16.30;14.07;;;;;;;;;;5052474;28;20213;-80
2024/02/10 04:56:59;;;;;;;18.97;15.03;;;;;;;;;;5045771;28;20193;-80
2024/02/10 04:59:26;;;;;;;18.47;14.57;;;;;;;;;;5045174;28;20237;-83
2024/02/10 05:01:55;;;;;;;16.77;14.90;;;;;;;;;;5051591;28;20225;-80
2024/02/10 05:04:24;;;;;;;16.73;14.97;;;;;;;;;;5053805;28;20312;-80
2024/02/10 05:06:55;;;;;;;17.10;15.17;;;;;;;;;;5048514;28;20186;-83
2024/02/10 05:09:23;;;;;;;16.53;14.83;;;;;;;;;;5050469;28;20198;-83
2024/02/10 05:11:58;;;;;;;17.23;14.77;;;;;;;;;;5060308;28;20201;-80
2024/02/10 05:14:25;;;;;;;16.67;14.20;;;;;;;;;;5061804;28;20713;-82
2024/02/10 05:16:55;;;;;;;17.13;14.23;;;;;;;;;;5056093;28;20643;-84
2024/02/10 05:19:22;;;;;;;16.07;14.07;;;;;;;;;;5056276;28;20225;-82
2024/02/10 05:21:52;;;;;;;19.23;14.77;;;;;;;;;;5050768;28;20177;-83
2024/02/10 05:24:18;;;;;;;16.67;14.70;;;;;;;;;;5053073;28;20281;-81
2024/02/10 05:26:45;;;;;;;19.13;14.90;;;;;;;;;;5047422;28;20212;-82
2024/02/10 05:29:14;;;;;;;17.50;15.50;;;;;;;;;;5032872;28;20202;-81
2024/02/10 05:31:47;;;;;;;17.03;14.83;;;;;;;;;;5030359;28;20204;-83
2024/02/10 05:34:18;;;;;;;18.67;15.93;;;;;;;;;;5052134;28;20283;-82
2024/02/10 05:36:48;;;;;;;22.57;20.03;;;;;;;;;;5045618;28;20230;-84
2024/02/10 05:39:22;;;;;;;26.07;23.47;;;;;;;;;;5037416;28;20213;-81
2024/02/10 05:41:52;;;;;;;26.03;23.30;;;;;;;;;;5047525;28;20255;-84
2024/02/10 05:44:32;;;;;;;24.73;22.30;;;;;;;;;;5047962;28;20207;-82
2024/02/10 05:47:02;;;;;;;25.07;22.60;;;;;;;;;;5053888;28;20200;-81
2024/02/10 05:49:34;;;;;;;23.87;21.67;;;;;;;;;;5052942;28;20210;-82
2024/02/10 05:52:01;;;;;;;23.37;21.07;;;;;;;;;;5038058;28;20199;-83
2024/02/10 05:54:35;;;;;;;20.57;18.37;;;;;;;;;;5048054;28;20185;-83
2024/02/10 05:57:05;;;;;;;22.13;18.67;;;;;;;;;;5055660;28;20196;-84
2024/02/10 05:59:38;;;;;;;22.00;18.43;;;;;;;;;;5060556;28;20286;-81
2024/02/10 06:02:05;;;;;;;21.03;17.23;;;;;;;;;;5060946;28;20250;-81
2024/02/10 06:04:41;;;;;;;17.60;15.80;;;;;;;;;;5041274;28;20256;-82
2024/02/10 06:07:09;;;;;;;20.60;16.13;;;;;;;;;;5054305;28;20178;-80
2024/02/10 06:09:38;;;;;;;16.67;14.83;;;;;;;;;;5053963;28;20185;-81
2024/02/10 06:12:08;;;;;;;18.37;14.87;;;;;;;;;;5036080;28;20201;-82
2024/02/10 06:14:37;;;;;;;18.13;15.67;;;;;;;;;;5054586;28;20247;-81
2024/02/10 06:17:04;;;;;;;18.97;16.10;;;;;;;;;;5053855;28;20191;-82
2024/02/10 06:19:38;;;;;;;18.23;15.23;;;;;;;;;;5036190;28;20253;-81
2024/02/10 06:22:06;;;;;;;18.07;15.43;;;;;;;;;;5019834;28;20220;-82
2024/02/10 06:24:35;;;;;;;18.00;15.17;;;;;;;;;;5053537;28;20182;-82
2024/02/10 06:27:02;;;;;;;18.13;16.17;;;;;;;;;;5035562;28;20194;-80
2024/02/10 06:29:34;;;;;;;18.60;15.47;;;;;;;;;;5053645;28;20205;-84
2024/02/10 06:32:05;;;;;;;18.97;14.80;;;;;;;;;;5035805;28;20696;-83
2024/02/10 06:34:34;;;;;;;19.23;15.13;;;;;;;;;;5035392;28;20284;-81
2024/02/10 06:37:02;;;;;;;18.07;15.17;;;;;;;;;;5053360;28;20554;-81
2024/02/10 06:39:29;;;;;;;17.27;14.73;;;;;;;;;;5053264;28;20673;-83
2024/02/10 06:41:56;;;;;;;17.23;14.50;;;;;;;;;;5037847;28;20189;-80
2024/02/10 06:44:25;;;;;;;17.67;14.63;;;;;;;;;;5057115;28;20276;-80
2024/02/10 06:46:52;;;;;;;16.03;14.03;;;;;;;;;;5039161;28;20196;-80
2024/02/10 06:49:22;;;;;;;18.33;14.93;;;;;;;;;;5039725;28;20685;-80
2024/02/10 06:51:50;;;;;;;18.33;14.80;;;;;;;;;;5056444;28;20186;-80
2024/02/10 06:54:21;;;;;;;16.03;14.20;;;;;;;;;;5056358;28;20228;-79
2024/02/10 06:56:51;;;;;;;17.57;14.53;;;;;;;;;;5055721;28;20236;-77
2024/02/10 06:59:23;;;;;;;16.77;13.27;;;;;;;;;;5056318;28;20225;-78
2024/02/10 07:01:54;;;;;;;15.03;13.63;;;;;;;;;;5055577;28;20642;-78
2024/02/10 07:04:22;;;;;;;15.30;13.70;;;;;;;;;;5047805;28;20280;-77
2024/02/10 07:06:53;;;;;;;15.23;13.03;;;;;;;;;;5040934;28;20205;-79
2024/02/10 07:09:22;;;;;;;14.07;12.30;;;;;;;;;;5033523;28;20209;-79
2024/02/10 07:11:57;;;;;;;13.23;11.70;;;;;;;;;;5030972;28;20316;-78
2024/02/10 07:14:24;;;;;;;13.87;11.80;;;;;;;;;;5033654;28;20198;-79
2024/02/10 07:16:54;;;;;;;12.97;11.63;;;;;;;;;;5032698;28;20193;-78
2024/02/10 07:19:23;;;;;;;13.70;12.17;;;;;;;;;;5044133;28;20204;-77
2024/02/10 07:21:50;;;;;;;12.67;10.97;;;;;;;;;;5037690;28;20208;-78
2024/02/10 07:24:17;;;;;;;14.70;13.13;;;;;;;;;;5046953;28;20217;-80
2024/02/10 07:26:43;;;;;;;14.23;12.73;;;;;;;;;;5044225;28;20194;-78
2024/02/10 07:29:11;;;;;;;15.67;13.30;;;;;;;;;;5017609;28;20623;-80
2024/02/10 07:31:39;;;;;;;15.30;13.70;;;;;;;;;;5016397;28;20202;-78
2024/02/10 07:34:06;;;;;;;20.80;13.20;;;;;;;;;;5041468;28;20197;-79
2024/02/10 07:36:37;;;;;;;13.20;11.57;;;;;;;;;;5028434;28;20194;-81
2024/02/10 07:39:06;;;;;;;12.93;11.50;;;;;;;;;;5035735;28;20202;-84
2024/02/10 07:41:38;;;;;;;12.30;10.83;;;;;;;;;;5014489;28;20262;-81
2024/02/10 07:44:07;;;;;;;11.50;10.30;;;;;;;;;;5051739;28;20213;-78
2024/02/10 07:46:43;;;;;;;13.53;11.50;;;;;;;;;;5045190;28;20194;-79
2024/02/10 07:49:10;;;;;;;12.70;10.40;;;;;;;;;;5019441;28;20190;-78
2024/02/10 07:51:39;;;;;;;11.33;10.13;;;;;;;;;;5025427;28;20197;-79
2024/02/10 07:54:07;;;;;;;10.97;9.60;;;;;;;;;;5042752;28;20413;-79
2024/02/10 07:56:34;;;;;;;10.27;8.70;;;;;;;;;;5035572;28;20186;-80
2024/02/10 07:59:02;;;;;;;8.87;7.97;;;;;;;;;;5009438;28;20233;-84
2024/02/10 08:01:29;;;;;;;10.80;9.23;;;;;;;;;;5011133;28;20232;-81
2024/02/10 08:03:58;;;;;;;9.07;7.90;;;;;;;;;;5032425;28;20276;-81
2024/02/10 08:06:30;;;;;;;8.80;8.00;;;;;;;;;;5037731;28;20198;-82
2024/02/10 08:09:00;;;;;;;9.63;7.70;;;;;;;;;;5031722;28;20249;-79
2024/02/10 08:11:31;;;;;;;9.50;7.20;;;;;;;;;;5034117;28;20304;-79
2024/02/10 08:14:01;;;;;;;7.80;7.03;;;;;;;;;;5014323;28;20218;-81
2024/02/10 08:16:28;;;;;;;9.13;7.87;;;;;;;;;;5031114;28;20194;-81
2024/02/10 08:18:57;;;;;;;7.60;6.90;;;;;;;;;;5031020;28;20277;-82
2024/02/10 08:21:26;;;;;;;7.83;7.03;;;;;;;;;;5031252;28;20618;-79
2024/02/10 08:23:57;;;;;;;7.83;6.93;;;;;;;;;;5031262;28;20248;-81
2024/02/10 08:26:25;;;;;;;8.60;7.27;;;;;;;;;;5031366;28;20214;-81
2024/02/10 08:28:55;;;;;;;8.30;6.83;;;;;;;;;;5031150;28;20190;-82
2024/02/10 08:31:30;;;;;;;7.70;6.40;;;;;;;;;;5030120;28;20208;-80
2024/02/10 08:33:58;;;;;;;7.97;6.27;;;;;;;;;;5029362;28;20248;-81
2024/02/10 08:36:29;;;;;;;8.17;7.27;;;;;;;;;;5031085;28;20201;-81
2024/02/10 08:38:58;;;;;;;7.43;6.57;;;;;;;;;;4988936;28;20445;-81
2024/02/10 08:41:27;;;;;;;9.83;7.20;;;;;;;;;;5030942;28;20257;-82
2024/02/10 08:43:55;;;;;;;8.63;7.10;;;;;;;;;;5012925;28;20252;-80
2024/02/10 08:46:25;;;;;;;7.80;6.70;;;;;;;;;;5030736;28;20285;-79
2024/02/10 08:48:52;;;;;;;7.70;6.90;;;;;;;;;;5020595;28;20197;-80
2024/02/10 08:51:24;;;;;;;7.17;6.47;;;;;;;;;;5030651;28;20301;-79
2024/02/10 08:53:52;;;;;;;7.90;6.07;;;;;;;;;;5030359;28;20786;-81
2024/02/10 08:56:22;;;;;;;7.43;6.73;;;;;;;;;;5030730;28;20241;-81
2024/02/10 08:58:54;;;;;;;7.97;7.07;;;;;;;;;;5032408;28;20225;-79
2024/02/10 09:01:22;;;;;;;8.03;7.03;;;;;;;;;;5031322;28;20221;-81
2024/02/10 09:03:56;;;;;;;7.53;6.70;;;;;;;;;;5033477;28;20221;-79
2024/02/10 09:06:26;;;;;;;6.97;6.27;;;;;;;;;;5045654;28;20270;-80
2024/02/10 09:09:00;;;;;;;8.07;7.03;;;;;;;;;;5045256;28;20296;-80
2024/02/10 09:11:26;;;;;;;7.00;6.40;;;;;;;;;;5048641;28;20732;-78
2024/02/10 09:13:53;;;;;;;6.50;5.73;;;;;;;;;;5051036;28;20225;-82
2024/02/10 09:16:20;;;;;;;6.63;6.00;;;;;;;;;;5031392;28;20266;-81
2024/02/10 09:18:49;;;;;;;6.17;5.57;;;;;;;;;;5027512;28;20212;-80
2024/02/10 09:21:20;;;;;;;7.00;5.97;;;;;;;;;;5050409;28;20355;-82
2024/02/10 09:23:47;;;;;;;8.23;7.43;;;;;;;;;;5050497;28;20244;-77
2024/02/10 09:26:19;;;;;;;7.80;6.90;;;;;;;;;;5030266;28;20194;-80
2024/02/10 09:28:46;;;;;;;7.80;6.80;;;;;;;;;;5049478;28;20189;-81
2024/02/10 09:31:13;;;;;;;8.97;7.40;;;;;;;;;;5053976;28;20335;-82
2024/02/10 09:33:49;;;;;;;8.07;7.27;;;;;;;;;;5048328;28;20661;-79
2024/02/10 09:36:26;;;;;;;7.47;6.77;;;;;;;;;;5030294;28;20210;-79
2024/02/10 09:38:55;;;;;;;8.07;7.27;;;;;;;;;;5049198;28;20682;-81
2024/02/10 09:41:24;;;;;;;8.90;7.70;;;;;;;;;;5050462;28;20367;-80
2024/02/10 09:43:55;;;;;;;7.70;7.00;;;;;;;;;;5033585;28;20209;-79
2024/02/10 09:46:24;;;;;;;8.10;7.30;;;;;;;;;;5055371;28;20198;-81
2024/02/10 09:48:57;;;;;;;8.13;7.33;;;;;;;;;;5041725;28;20194;-80
2024/02/10 09:51:28;;;;;;;7.67;6.97;;;;;;;;;;5043000;28;20190;-81
2024/02/10 09:53:55;;;;;;;9.43;7.70;;;;;;;;;;5057909;28;20245;-81
2024/02/10 09:56:31;;;;;;;8.20;7.40;;;;;;;;;;5053020;28;20543;-80
2024/02/10 09:59:00;;;;;;;8.00;7.30;;;;;;;;;;5043072;28;20285;-79
2024/02/10 10:01:37;;;;;;;7.90;7.10;;;;;;;;;;5033226;28;20214;-79
2024/02/10 10:04:10;;;;;;;7.83;7.07;;;;;;;;;;5033932;28;20202;-83
2024/02/10 10:06:43;;;;;;;7.97;7.13;;;;;;;;;;5034068;28;20623;-79
2024/02/10 10:09:14;;;;;;;7.90;7.20;;;;;;;;;;5023153;28;20203;-81
2024/02/10 10:11:48;;;;;;;8.20;7.13;;;;;;;;;;5009170;28;20196;-79
2024/02/10 10:14:24;;;;;;;8.87;7.23;;;;;;;;;;5022108;28;20278;-79
2024/02/10 10:16:57;;;;;;;8.07;7.27;;;;;;;;;;5045054;28;20202;-79
2024/02/10 10:19:35;;;;;;;8.10;7.37;;;;;;;;;;5039900;28;20696;-80
2024/02/10 10:22:07;;;;;;;6.83;6.13;;;;;;;;;;5025641;28;20721;-79
2024/02/10 10:24:41;;;;;;;7.30;6.63;;;;;;;;;;5029074;28;20193;-82
2024/02/10 10:27:22;;;;;;;6.30;5.70;;;;;;;;;;5033717;28;20259;-80
2024/02/10 10:29:51;;;;;;;6.83;6.20;;;;;;;;;;5044716;28;20740;-81
2024/02/10 10:32:19;;;;;;;7.10;6.40;;;;;;;;;;5039611;28;20259;-80
2024/02/10 10:34:48;;;;;;;8.13;7.37;;;;;;;;;;5052882;28;20197;-80
2024/02/10 10:37:24;;;;;;;9.37;8.30;;;;;;;;;;5043232;28;20204;-80
2024/02/10 10:39:51;;;;;;;4.83;4.13;;;;;;;;;;5033421;28;20186;-80
2024/02/10 10:42:20;;;;;;;4.10;3.10;;;;;;;;;;5039178;28;20214;-81
2024/02/10 10:44:50;;;;;;;3.80;3.20;;;;;;;;;;5022645;28;20198;-80
2024/02/10 10:47:25;;;;;;;3.10;1.70;;;;;;;;;;5039004;28;20179;-79
2024/02/10 10:49:54;;;;;;;1.73;1.30;;;;;;;;;;5045775;28;20197;-81
2024/02/10 10:52:24;;;;;;;2.33;1.00;;;;;;;;;;5033380;28;20264;-81
2024/02/10 10:54:55;;;;;;;0.43;0.43;;;;;;;;;;5042808;28;20252;-80
2024/02/10 10:57:24;;;;;;;2.00;1.80;;;;;;;;;;5022708;28;20206;-80
2024/02/10 11:00:11;;;;;;;1.67;1.33;;;;;;;;;;5019859;28;20785;-81
2024/02/10 11:02:42;;;;;;;0.90;0.57;;;;;;;;;;5020410;28;20216;-81
2024/02/10 11:05:16;;;;;;;2.73;0.70;;;;;;;;;;5038179;28;20218;-80
2024/02/10 11:08:02;;;;;;;0.70;0.30;;;;;;;;;;5039284;28;20198;-80
2024/02/10 11:10:44;;;;;;;1.10;0.90;;;;;;;;;;5039364;28;20194;-80
2024/02/10 11:13:26;;;;;;;3.63;2.70;;;;;;;;;;5040944;28;20193;-80
2024/02/10 11:16:14;;;;;;;1.67;1.33;;;;;;;;;;5039792;28;20201;-79
2024/02/10 11:18:48;;;;;;;0.73;0.50;;;;;;;;;;5040882;28;20197;-79
2024/02/10 11:21:25;;;;;;;0.50;0.40;;;;;;;;;;5032611;28;20695;-82
2024/02/10 11:24:06;;;;;;;0.30;0.30;;;;;;;;;;5025998;28;20202;-79
2024/02/10 11:26:41;;;;;;;2.00;1.80;;;;;;;;;;5040746;28;20221;-80
2024/02/10 11:29:13;;;;;;;2.97;2.33;;;;;;;;;;5036280;28;20236;-82
2024/02/10 11:31:40;;;;;;;2.50;2.30;;;;;;;;;;5038895;28;20216;-80
2024/02/10 11:34:19;;;;;;;2.10;1.90;;;;;;;;;;5035576;28;20249;-80
2024/02/10 11:36:53;;;;;;;0.70;0.70;;;;;;;;;;5034027;28;20253;-81
2024/02/10 11:39:27;;;;;;;0.80;0.50;;;;;;;;;;5017927;28;20269;-81
2024/02/10 11:41:59;;;;;;;2.17;1.73;;;;;;;;;;5031464;28;20298;-80
2024/02/10 11:44:28;;;;;;;1.10;1.00;;;;;;;;;;5016106;28;20230;-79
2024/02/10 11:46:59;;;;;;;0.60;0.40;;;;;;;;;;5014279;28;20230;-79
2024/02/10 11:49:27;;;;;;;1.20;1.03;;;;;;;;;;5035881;28;20191;-79
2024/02/10 11:51:57;;;;;;;1.27;0.50;;;;;;;;;;5038031;28;20216;-81
2024/02/10 11:54:27;;;;;;;1.47;0.53;;;;;;;;;;5032064;28;20191;-80
2024/02/10 11:57:00;;;;;;;0.40;0.40;;;;;;;;;;5031735;28;20199;-80
2024/02/10 11:59:28;;;;;;;1.13;0.50;;;;;;;;;;5036658;28;20720;-81
2024/02/10 12:01:55;;;;;;;1.67;0.40;;;;;;;;;;5039573;28;20250;-80
2024/02/10 12:04:26;;;;;;;0.90;0.30;;;;;;;;;;5039347;28;20215;-81
2024/02/10 12:06:56;;;;;;;0.70;0.70;;;;;;;;;;5035726;28;20187;-80
2024/02/10 12:09:25;;;;;;;0.50;0.50;;;;;;;;;;5032781;28;20218;-81
2024/02/10 12:12:00;;;;;;;1.07;0.50;;;;;;;;;;5038761;28;20699;-80
2024/02/10 12:14:30;;;;;;;0.67;0.67;;;;;;;;;;5020377;28;20290;-79
2024/02/10 12:17:06;;;;;;;0.83;0.60;;;;;;;;;;5042758;28;20220;-81
2024/02/10 12:19:39;;;;;;;0.87;0.57;;;;;;;;;;5041761;28;20205;-80
2024/02/10 12:22:08;;;;;;;0.63;0.60;;;;;;;;;;5038234;28;20219;-81
2024/02/10 12:24:38;;;;;;;1.30;0.47;;;;;;;;;;5044824;28;20201;-81
2024/02/10 12:27:07;;;;;;;0.57;0.57;;;;;;;;;;5042683;28;20279;-79
2024/02/10 12:29:40;;;;;;;2.50;1.20;;;;;;;;;;5039150;28;20196;-80
2024/02/10 12:32:10;;;;;;;2.57;1.20;;;;;;;;;;5029432;28;20234;-80
2024/02/10 12:34:39;;;;;;;1.90;1.70;;;;;;;;;;5037506;28;20719;-79
2024/02/10 12:37:08;;;;;;;1.87;0.90;;;;;;;;;;5040815;28;20203;-79
2024/02/10 12:39:38;;;;;;;2.10;1.47;;;;;;;;;;5039953;28;20277;-80
2024/02/10 12:42:05;;;;;;;3.70;2.23;;;;;;;;;;5036223;28;20245;-80
2024/02/10 12:44:35;;;;;;;1.43;0.60;;;;;;;;;;5013258;28;20203;-81
2024/02/10 12:47:02;;;;;;;1.50;1.07;;;;;;;;;;5036500;28;20206;-80
2024/02/10 12:49:32;;;;;;;1.27;0.70;;;;;;;;;;5019136;28;20210;-82
2024/02/10 12:52:05;;;;;;;1.60;0.67;;;;;;;;;;5020765;28;20742;-80
2024/02/10 12:54:33;;;;;;;4.10;2.47;;;;;;;;;;5040901;28;20203;-81
2024/02/10 12:57:05;;;;;;;2.20;1.83;;;;;;;;;;5037057;28;20212;-79
2024/02/10 12:59:33;;;;;;;2.73;2.20;;;;;;;;;;5048788;28;20715;-81
2024/02/10 13:02:01;;;;;;;2.33;0.90;;;;;;;;;;5050006;28;20234;-79
2024/02/10 13:04:35;;;;;;;1.90;1.27;;;;;;;;;;5053147;28;20348;-80
2024/02/10 13:07:15;;;;;;;1.13;1.00;;;;;;;;;;5044534;28;20202;-80
2024/02/10 13:09:43;;;;;;;4.90;2.93;;;;;;;;;;5050009;28;20271;-81
2024/02/10 13:12:13;;;;;;;2.80;1.77;;;;;;;;;;5050342;28;20211;-80
2024/02/10 13:14:41;;;;;;;2.17;1.03;;;;;;;;;;5050265;28;20279;-80
2024/02/10 13:17:11;;;;;;;2.33;1.10;;;;;;;;;;5050238;28;20769;-80
2024/02/10 13:19:42;;;;;;;1.70;1.60;;;;;;;;;;5049627;28;20193;-78
2024/02/10 13:22:11;;;;;;;3.73;1.50;;;;;;;;;;5043055;28;20232;-79
2024/02/10 13:24:38;;;;;;;4.57;2.87;;;;;;;;;;5049869;28;20196;-80
2024/02/10 13:27:10;;;;;;;5.83;4.00;;;;;;;;;;5049724;28;20214;-80
2024/02/10 13:29:38;;;;;;;5.30;2.67;;;;;;;;;;5049670;28;20194;-81
2024/02/10 13:32:16;;;;;;;6.50;3.30;;;;;;;;;;5050426;28;20201;-81
2024/02/10 13:34:48;;;;;;;3.37;2.23;;;;;;;;;;5047172;28;20298;-79
2024/02/10 14:05:00;;;;;;;7.70;3.23;;;;;;;;;;5044551;28;20225;-78
2024/02/10 14:10:11;;;;;;;6.17;2.70;;;;;;;;;;5037036;28;20267;-79
2024/02/10 14:12:40;;;;;;;7.37;2.60;;;;;;;;;;5039473;28;20196;-80
2024/02/10 14:15:16;;;;;;;4.57;2.23;;;;;;;;;;5035817;28;20267;-79
2024/02/10 14:18:00;;;;;;;8.50;2.00;;;;;;;;;;5028999;28;20215;-79
2024/02/10 14:20:29;;;;;;;7.23;2.67;;;;;;;;;;5030959;28;20262;-82
2024/02/10 14:22:56;;;;;;;7.43;2.50;;;;;;;;;;5037007;28;20267;-80
2024/02/10 14:25:29;;;;;;;8.57;3.20;;;;;;;;;;5033169;28;20295;-80
2024/02/10 14:28:10;;;;;;;9.27;2.93;;;;;;;;;;5050312;28;20196;-79
2024/02/10 14:30:48;;;;;;;8.27;3.10;;;;;;;;;;5038387;28;20197;-82
2024/02/10 14:33:22;;;;;;;6.73;2.30;;;;;;;;;;5036560;28;20211;-80
2024/02/10 14:35:58;;;;;;;5.50;2.50;;;;;;;;;;5047153;28;20712;-81
2024/02/10 14:38:58;;;;;;;8.00;2.80;;;;;;;;;;5042233;28;20666;-79
2024/02/10 14:41:31;;;;;;;7.27;2.87;;;;;;;;;;5043441;28;20225;-79
2024/02/10 14:44:10;;;;;;;8.23;2.67;;;;;;;;;;5046550;28;20247;-80
2024/02/10 14:46:42;;;;;;;6.87;2.67;;;;;;;;;;5018211;28;20248;-79
2024/02/10 14:49:14;;;;;;;7.23;2.80;;;;;;;;;;5042371;28;20190;-80
2024/02/10 14:51:41;;;;;;;6.40;2.67;;;;;;;;;;5040932;28;20225;-80
2024/02/10 14:54:14;;;;;;;7.23;3.00;;;;;;;;;;5047784;28;20197;-80
2024/02/10 14:56:45;;;;;;;9.63;3.10;;;;;;;;;;5044538;28;20200;-80
2024/02/10 14:59:12;;;;;;;8.97;2.90;;;;;;;;;;5037434;28;20251;-82
2024/02/10 15:01:40;;;;;;;4.47;2.40;;;;;;;;;;5052058;28;20393;-80
2024/02/10 15:04:07;;;;;;;8.77;2.80;;;;;;;;;;5037768;28;20642;-82
2024/02/10 15:06:36;;;;;;;7.67;2.60;;;;;;;;;;5051861;28;20198;-79
2024/02/10 15:09:10;;;;;;;7.30;3.13;;;;;;;;;;5053283;28;20197;-81
2024/02/10 15:11:40;;;;;;;8.70;3.10;;;;;;;;;;5051572;28;20653;-81
2024/02/10 15:14:11;;;;;;;13.47;3.00;;;;;;;;;;5053052;28;20218;-81
2024/02/10 15:16:40;;;;;;;9.93;2.80;;;;;;;;;;5062518;28;20209;-80
2024/02/10 15:19:07;;;;;;;9.30;3.30;;;;;;;;;;5055704;28;20194;-79